CYHD

Dryden Regional Airport

Dryden, Ontario, Canada
METAR CYHD 151800Z AUTO 32007KT 290V360 9SM M14/M18 A3001 RMK CLD MISG SLP203
Observed Flight Rules
Feb-15 @ 18:00 UTC (an hour ago)
Wind Visibility
320° at 7 knots 9 miles
Temperatures Readings
Current -14°C / 7°F
Dewpoint -18°C / -0°F
Humidity 72%
Altimeter 30.01" Hg
Pressure 1020.3 hPa
Elevation 413
METAR CYHD 151800Z AUTO 32007KT 290V360 9SM M14/M18 A3001 RMK CLD MISG SLP203
Observed Flight Rules
Feb-15 @ 18:00 UTC
(an hour ago)
Wind Visibility
320° at 7 knots 9 miles
Temperature Dewpoint
-14°C / 7°F -18°C / -0°F
Humidity Altimeter Pressure
72% 30.01" Hg 1020.3 hPa